createdAt,value
2019-05-19T00:01:02.970Z,26.62
2019-05-19T00:03:24.218Z,27.50
2019-05-19T00:05:45.610Z,26.35
2019-05-19T00:08:07.937Z,26.27
2019-05-19T00:10:30.024Z,30.60
2019-05-19T00:12:52.301Z,26.97
2019-05-19T00:15:13.734Z,27.40
2019-05-19T00:17:35.016Z,23.52
2019-05-19T00:19:56.395Z,30.65
2019-05-19T00:22:24.006Z,26.17
2019-05-19T00:24:47.347Z,28.17
2019-05-19T00:27:09.819Z,25.32
2019-05-19T00:29:31.451Z,26.85
2019-05-19T00:31:52.839Z,27.42
2019-05-19T00:34:14.423Z,25.55
2019-05-19T00:36:35.863Z,26.27
2019-05-19T00:38:57.276Z,24.87
2019-05-19T00:41:19.061Z,26.40
2019-05-19T00:43:40.585Z,24.95
2019-05-19T00:46:02.005Z,23.42
2019-05-19T00:48:23.287Z,25.85
2019-05-19T00:50:44.803Z,26.23
2019-05-19T00:53:06.298Z,23.38
2019-05-19T00:55:27.782Z,24.02
2019-05-19T00:57:49.110Z,25.88
2019-05-19T01:00:10.984Z,21.05
2019-05-19T01:02:32.571Z,22.82
2019-05-19T01:04:54.230Z,25.08
2019-05-19T01:07:15.724Z,23.55
2019-05-19T01:09:37.306Z,26.75
2019-05-19T01:11:58.836Z,24.00
2019-05-19T01:14:20.621Z,27.10
2019-05-19T01:16:42.006Z,22.80
2019-05-19T01:19:03.443Z,25.57
2019-05-19T01:21:24.932Z,22.65
2019-05-19T01:23:46.322Z,26.30
2019-05-19T01:26:08.258Z,22.42
2019-05-19T01:28:30.050Z,22.22
2019-05-19T01:30:51.540Z,23.12
2019-05-19T01:33:13.154Z,26.62
2019-05-19T01:35:34.645Z,25.50
2019-05-19T01:37:56.348Z,26.17
2019-05-19T01:40:18.242Z,26.25
2019-05-19T01:42:39.976Z,25.25
2019-05-19T01:45:01.992Z,20.72
2019-05-19T01:47:23.300Z,24.35
2019-05-19T01:49:44.672Z,25.10
2019-05-19T01:52:06.169Z,25.35
2019-05-19T01:54:27.895Z,24.82
2019-05-19T01:56:49.288Z,26.42
2019-05-19T01:59:10.884Z,26.68
2019-05-19T02:01:32.338Z,24.95
2019-05-19T02:03:53.719Z,28.40
2019-05-19T02:06:15.109Z,25.65
2019-05-19T02:08:36.786Z,27.20
2019-05-19T02:10:58.255Z,24.07
2019-05-19T02:13:19.860Z,26.77
2019-05-19T02:15:41.266Z,25.77
2019-05-19T02:18:03.061Z,29.65
2019-05-19T02:20:32.909Z,27.22
2019-05-19T02:22:47.674Z,28.12
2019-05-19T02:25:09.202Z,25.08
2019-05-19T02:27:30.815Z,24.90
2019-05-19T02:29:52.115Z,24.95
2019-05-19T02:32:13.641Z,24.10
2019-05-19T02:34:34.938Z,27.27
2019-05-19T02:36:56.345Z,25.92
2019-05-19T02:39:18.371Z,26.37
2019-05-19T02:41:39.827Z,27.42
2019-05-19T02:44:01.312Z,22.13
2019-05-19T02:46:24.199Z,27.17
2019-05-19T02:48:45.574Z,26.07
2019-05-19T02:51:07.162Z,23.38
2019-05-19T02:53:28.835Z,25.12
2019-05-19T02:55:50.239Z,26.97
2019-05-19T02:58:11.845Z,25.30
2019-05-19T03:00:37.994Z,29.10
2019-05-19T03:02:59.463Z,25.20
2019-05-19T03:05:20.837Z,25.97
2019-05-19T03:07:42.364Z,25.70
2019-05-19T03:10:04.150Z,24.32
2019-05-19T03:12:25.538Z,23.62
2019-05-19T03:14:47.158Z,26.87
2019-05-19T03:17:08.758Z,25.97
2019-05-19T03:19:30.133Z,25.25
2019-05-19T03:21:51.753Z,24.18
2019-05-19T03:24:13.267Z,23.35
2019-05-19T03:26:35.143Z,25.05
2019-05-19T03:28:56.557Z,22.13
2019-05-19T03:31:22.632Z,21.57
2019-05-19T03:33:45.811Z,27.70
2019-05-19T03:36:07.107Z,24.15
2019-05-19T03:38:28.599Z,26.27
2019-05-19T03:40:49.928Z,25.82
2019-05-19T03:43:11.218Z,26.00
2019-05-19T03:45:32.805Z,25.37
2019-05-19T03:48:14.078Z,23.40
2019-05-19T03:50:35.368Z,27.82
2019-05-19T03:52:56.862Z,24.43
2019-05-19T03:55:19.495Z,25.48
2019-05-19T03:57:40.987Z,26.65
2019-05-19T04:00:04.857Z,26.23
2019-05-19T04:02:26.487Z,22.62
2019-05-19T04:04:48.250Z,24.65
2019-05-19T04:07:09.530Z,22.62
2019-05-19T04:09:30.957Z,21.87
2019-05-19T04:11:52.459Z,26.17
2019-05-19T04:14:33.585Z,19.92
2019-05-19T04:16:55.067Z,28.70
2019-05-19T04:19:16.394Z,27.35
2019-05-19T04:21:48.272Z,23.80
2019-05-19T04:24:01.278Z,25.33
2019-05-19T04:26:22.601Z,20.92
2019-05-19T04:28:44.205Z,23.18
2019-05-19T04:31:05.709Z,22.30
2019-05-19T04:33:27.133Z,19.82
2019-05-19T04:35:48.407Z,21.90
2019-05-19T04:38:09.692Z,20.92
2019-05-19T04:40:31.245Z,21.93
2019-05-19T04:42:52.799Z,25.43
2019-05-19T04:45:14.290Z,27.17
2019-05-19T04:47:35.927Z,23.32
2019-05-19T04:49:57.416Z,22.52
2019-05-19T04:52:19.014Z,22.62
2019-05-19T04:55:00.276Z,25.02
2019-05-19T04:57:21.716Z,24.35
2019-05-19T04:59:43.292Z,21.85
2019-05-19T05:02:04.635Z,21.75
2019-05-19T05:04:29.334Z,18.57
2019-05-19T05:06:49.437Z,21.52
2019-05-19T05:09:10.945Z,17.20
2019-05-19T05:11:32.531Z,19.75
2019-05-19T05:13:54.015Z,20.48
2019-05-19T05:16:15.349Z,20.30
2019-05-19T05:18:37.635Z,17.85
2019-05-19T05:20:59.000Z,21.50
2019-05-19T05:23:20.422Z,18.35
2019-05-19T05:25:41.829Z,22.30
2019-05-19T05:28:03.322Z,15.32
2019-05-19T05:30:24.838Z,17.75
2019-05-19T05:32:46.232Z,15.35
2019-05-19T05:35:07.710Z,19.65
2019-05-19T05:37:29.234Z,18.92
2019-05-19T05:39:50.882Z,18.82
2019-05-19T05:42:12.255Z,19.57
2019-05-19T05:44:34.225Z,19.98
2019-05-19T05:46:55.631Z,17.77
2019-05-19T05:49:17.110Z,19.87
2019-05-19T05:51:38.978Z,19.10
2019-05-19T05:54:00.542Z,20.32
2019-05-19T05:56:21.836Z,20.52
2019-05-19T05:58:43.312Z,20.82
2019-05-19T06:01:04.806Z,19.75
2019-05-19T06:03:26.201Z,19.00
2019-05-19T06:05:47.867Z,19.62
2019-05-19T06:08:09.409Z,19.60
2019-05-19T06:10:30.917Z,20.72
2019-05-19T06:12:54.497Z,20.00
2019-05-19T06:15:15.762Z,18.07
2019-05-19T06:17:37.159Z,22.10
2019-05-19T06:19:58.794Z,17.55
2019-05-19T06:22:20.188Z,22.20
2019-05-19T06:24:41.553Z,17.37
2019-05-19T06:27:02.859Z,18.02
2019-05-19T06:29:24.439Z,17.00
2019-05-19T06:31:45.931Z,19.07
2019-05-19T06:34:07.581Z,15.88
2019-05-19T06:36:28.852Z,19.23
2019-05-19T06:38:50.289Z,17.87
2019-05-19T06:41:11.787Z,17.87
2019-05-19T06:43:33.075Z,18.75
2019-05-19T06:45:54.562Z,18.73
2019-05-19T06:48:15.977Z,19.50
2019-05-19T06:50:40.668Z,22.30
2019-05-19T06:53:13.575Z,24.98
2019-05-19T06:55:24.063Z,18.70
2019-05-19T06:57:45.433Z,23.67
2019-05-19T07:00:06.824Z,24.05
2019-05-19T07:02:28.351Z,23.05
2019-05-19T07:04:49.722Z,23.45
2019-05-19T07:07:11.123Z,22.70
2019-05-19T07:09:32.546Z,24.45
2019-05-19T07:11:53.954Z,29.72
2019-05-19T07:14:15.241Z,28.10
2019-05-19T07:16:36.827Z,20.43
2019-05-19T07:18:58.109Z,29.40
2019-05-19T07:21:19.403Z,29.02
2019-05-19T07:23:40.903Z,32.35
2019-05-19T07:26:02.396Z,28.98
2019-05-19T07:28:24.298Z,28.52
2019-05-19T07:30:45.809Z,32.13
2019-05-19T07:33:07.099Z,31.40
2019-05-19T07:35:28.601Z,30.00
2019-05-19T07:37:50.030Z,25.85
2019-05-19T07:40:11.402Z,29.27
2019-05-19T07:42:32.896Z,28.00
2019-05-19T07:44:54.405Z,29.55
2019-05-19T07:47:15.681Z,31.42
2019-05-19T07:49:37.174Z,29.72
2019-05-19T07:51:58.833Z,30.57
2019-05-19T07:54:20.286Z,29.25
2019-05-19T07:56:41.554Z,31.80
2019-05-19T07:59:03.064Z,32.73
2019-05-19T08:01:24.348Z,30.75
2019-05-19T08:03:45.838Z,33.67
2019-05-19T08:06:07.746Z,29.32
2019-05-19T08:08:29.125Z,29.70
2019-05-19T08:10:50.578Z,29.23
2019-05-19T08:13:12.104Z,32.15
2019-05-19T08:15:33.514Z,25.23
2019-05-19T08:17:55.113Z,29.12
2019-05-19T08:20:16.658Z,23.73
2019-05-19T08:22:38.236Z,24.67
2019-05-19T08:24:59.524Z,22.93
2019-05-19T08:27:21.068Z,23.25
2019-05-19T08:29:42.751Z,27.20
2019-05-19T08:32:04.250Z,24.10
2019-05-19T08:34:25.626Z,25.65
2019-05-19T08:36:47.209Z,22.82
2019-05-19T08:39:08.814Z,27.67
2019-05-19T08:41:30.321Z,28.73
2019-05-19T08:43:53.359Z,29.27
2019-05-19T08:46:15.012Z,29.05
2019-05-19T08:48:36.448Z,27.73
2019-05-19T08:50:58.034Z,26.65
2019-05-19T08:53:19.423Z,26.10
2019-05-19T08:55:40.847Z,28.83
2019-05-19T08:58:05.092Z,28.47
2019-05-19T09:02:48.057Z,31.65
2019-05-19T09:05:09.461Z,30.82
2019-05-19T09:07:30.846Z,32.13
2019-05-19T09:09:52.271Z,27.77
2019-05-19T09:12:13.781Z,34.27
2019-05-19T09:14:35.368Z,35.30
2019-05-19T09:16:57.003Z,30.32
2019-05-19T09:19:18.295Z,32.28
2019-05-19T09:21:42.108Z,30.12
2019-05-19T09:24:03.501Z,33.70
2019-05-19T09:26:24.886Z,34.65
2019-05-19T09:28:46.374Z,30.80
2019-05-19T09:31:07.818Z,26.70
2019-05-19T09:33:29.204Z,26.57
2019-05-19T09:35:50.608Z,26.87
2019-05-19T09:38:11.925Z,27.32
2019-05-19T09:40:33.341Z,30.82
2019-05-19T09:42:54.963Z,28.80
2019-05-19T09:45:16.422Z,25.27
2019-05-19T09:47:37.962Z,25.48
2019-05-19T09:49:59.420Z,31.12
2019-05-19T09:52:40.866Z,24.82
2019-05-19T09:55:03.747Z,25.95
2019-05-19T09:57:25.143Z,25.20
2019-05-19T09:59:46.586Z,25.27
2019-05-19T10:02:08.232Z,24.15
2019-05-19T10:04:29.706Z,20.40
2019-05-19T10:06:51.144Z,23.22
2019-05-19T10:09:21.616Z,17.70
2019-05-19T10:12:01.934Z,20.17
2019-05-19T10:14:23.420Z,21.73
2019-05-19T10:16:44.708Z,21.10
2019-05-19T10:19:06.607Z,23.05
2019-05-19T10:21:28.099Z,25.88
2019-05-19T10:23:49.499Z,17.98
2019-05-19T10:26:11.244Z,14.50
2019-05-19T10:28:32.825Z,14.28
2019-05-19T10:30:54.926Z,15.70
2019-05-19T10:33:16.201Z,13.60
2019-05-19T10:35:37.811Z,14.30
2019-05-19T10:37:59.240Z,15.65
2019-05-19T10:40:20.719Z,9.93
2019-05-19T10:42:42.215Z,11.73
2019-05-19T10:45:07.333Z,12.05
2019-05-19T10:47:28.810Z,12.53
2019-05-19T10:49:50.399Z,11.60
2019-05-19T10:52:11.828Z,13.13
2019-05-19T10:54:33.416Z,9.88
2019-05-19T10:56:54.912Z,10.15
2019-05-19T10:59:16.320Z,10.88
2019-05-19T11:01:37.512Z,12.60
2019-05-19T11:03:58.918Z,9.28
2019-05-19T11:06:20.415Z,10.40
2019-05-19T11:08:41.741Z,11.60
2019-05-19T11:11:03.249Z,13.90
2019-05-19T11:13:24.750Z,8.80
2019-05-19T11:15:46.092Z,9.30
2019-05-19T11:18:07.362Z,10.55
2019-05-19T11:20:28.976Z,9.68
2019-05-19T11:22:50.858Z,8.45
2019-05-19T11:25:12.463Z,12.33
2019-05-19T11:27:34.182Z,10.53
2019-05-19T11:29:55.513Z,7.00
2019-05-19T11:32:17.120Z,10.00
2019-05-19T11:34:38.503Z,8.83
2019-05-19T11:37:00.123Z,8.45
2019-05-19T11:39:21.668Z,7.25
2019-05-19T11:41:43.055Z,8.93
2019-05-19T11:44:04.514Z,8.45
2019-05-19T11:46:28.558Z,6.33
2019-05-19T11:48:50.267Z,6.15
2019-05-19T11:51:12.022Z,6.87
2019-05-19T11:53:33.618Z,6.70
2019-05-19T11:56:06.081Z,8.25
2019-05-19T11:58:18.196Z,6.80
2019-05-19T12:00:41.268Z,6.55
2019-05-19T12:03:02.855Z,6.07
2019-05-19T12:05:24.310Z,6.60
2019-05-19T12:07:45.618Z,6.10
2019-05-19T12:10:06.917Z,7.80
2019-05-19T12:12:28.795Z,11.78
2019-05-19T12:14:50.295Z,7.20
2019-05-19T12:17:11.779Z,6.92
2019-05-19T12:19:33.322Z,6.33
2019-05-19T12:21:55.558Z,7.72
2019-05-19T12:24:17.300Z,6.25
2019-05-19T12:26:38.783Z,6.62
2019-05-19T12:29:00.195Z,6.37
2019-05-19T12:31:21.735Z,6.58
2019-05-19T12:33:51.686Z,6.03
2019-05-19T12:36:06.290Z,6.33
2019-05-19T12:38:27.763Z,7.83
2019-05-19T12:40:49.146Z,7.05
2019-05-19T12:43:10.846Z,7.60
2019-05-19T12:45:32.490Z,7.12
2019-05-19T12:47:53.970Z,5.70
2019-05-19T12:50:15.594Z,7.15
2019-05-19T12:52:37.195Z,7.45
2019-05-19T12:54:58.726Z,6.17
2019-05-19T12:57:21.351Z,6.37
2019-05-19T12:59:43.153Z,6.53
2019-05-19T13:02:04.765Z,10.08
2019-05-19T13:04:32.128Z,5.78
2019-05-19T13:06:53.547Z,6.78
2019-05-19T13:09:15.247Z,5.10
2019-05-19T13:11:36.978Z,9.35
2019-05-19T13:13:58.595Z,6.20
2019-05-19T13:16:19.992Z,8.65
2019-05-19T13:18:41.567Z,5.87
2019-05-19T13:21:03.120Z,5.22
2019-05-19T13:23:24.413Z,5.60
2019-05-19T13:25:45.862Z,7.22
2019-05-19T13:28:07.245Z,8.28
2019-05-19T13:30:28.653Z,4.97
2019-05-19T13:32:49.960Z,8.13
2019-05-19T13:35:11.258Z,6.80
2019-05-19T13:37:32.770Z,5.45
2019-05-19T13:40:13.954Z,5.45
2019-05-19T13:42:35.610Z,7.00
2019-05-19T13:44:56.872Z,7.17
2019-05-19T13:47:18.172Z,4.78
2019-05-19T13:49:39.562Z,4.95
2019-05-19T13:52:00.798Z,3.90
2019-05-19T13:54:22.407Z,7.03
2019-05-19T13:56:43.733Z,5.45
2019-05-19T13:59:05.245Z,9.00
2019-05-19T14:01:28.915Z,4.12
2019-05-19T14:03:52.155Z,4.03
2019-05-19T14:06:13.121Z,6.87
2019-05-19T14:08:34.922Z,4.10
2019-05-19T14:10:56.480Z,4.40
2019-05-19T14:13:17.771Z,6.78
2019-05-19T14:15:40.744Z,4.35
2019-05-19T14:18:02.191Z,5.00
2019-05-19T14:20:23.708Z,4.10
2019-05-19T14:22:45.165Z,7.20
2019-05-19T14:25:07.074Z,4.58
2019-05-19T14:27:30.727Z,3.80
2019-05-19T14:29:51.601Z,4.42
2019-05-19T14:32:13.143Z,4.83
2019-05-19T14:34:34.718Z,4.33
2019-05-19T14:36:55.999Z,5.75
2019-05-19T14:39:17.449Z,6.92
2019-05-19T14:41:40.635Z,8.88
2019-05-19T14:44:02.443Z,4.55
2019-05-19T14:46:23.967Z,4.90
2019-05-19T14:48:45.353Z,4.45
2019-05-19T14:51:07.057Z,5.22
2019-05-19T14:53:48.330Z,8.63
2019-05-19T14:56:09.612Z,7.65
2019-05-19T14:58:30.993Z,5.87
2019-05-19T15:00:52.541Z,6.83
2019-05-19T15:03:14.033Z,5.62
2019-05-19T15:05:35.671Z,5.60
2019-05-19T15:07:57.100Z,4.72
2019-05-19T15:10:18.473Z,4.00
2019-05-19T15:12:39.973Z,4.72
2019-05-19T15:15:01.800Z,5.47
2019-05-19T15:17:23.177Z,5.35
2019-05-19T15:19:44.473Z,8.53
2019-05-19T15:22:05.806Z,5.85
2019-05-19T15:24:27.583Z,6.53
2019-05-19T15:26:48.861Z,5.00
2019-05-19T15:29:10.620Z,7.15
2019-05-19T15:31:32.005Z,5.65
2019-05-19T15:33:53.409Z,7.30
2019-05-19T15:36:15.168Z,4.75
2019-05-19T15:38:36.552Z,4.35
2019-05-19T15:40:58.499Z,4.25
2019-05-19T15:43:19.900Z,5.05
2019-05-19T15:45:41.232Z,4.90
2019-05-19T15:48:02.639Z,4.50
2019-05-19T15:50:24.166Z,8.25
2019-05-19T15:52:45.850Z,7.47
2019-05-19T15:55:07.366Z,5.15
2019-05-19T15:57:28.857Z,4.87
2019-05-19T15:59:50.775Z,5.85
2019-05-19T16:02:12.278Z,3.77
2019-05-19T16:04:33.594Z,4.37
2019-05-19T16:06:55.630Z,5.20
2019-05-19T16:09:17.077Z,5.78
2019-05-19T16:11:38.608Z,5.62
2019-05-19T16:14:00.198Z,6.47
2019-05-19T16:16:22.010Z,6.00
2019-05-19T16:18:43.533Z,6.55
2019-05-19T16:21:04.810Z,7.22
2019-05-19T16:23:26.133Z,6.42
2019-05-19T16:25:47.657Z,5.15
2019-05-19T16:28:09.096Z,6.42
2019-05-19T16:30:30.478Z,6.80
2019-05-19T16:32:52.431Z,4.37
2019-05-19T16:35:13.932Z,7.95
2019-05-19T16:37:35.665Z,6.72
2019-05-19T16:39:57.197Z,15.50
2019-05-19T16:42:18.632Z,6.67
2019-05-19T16:44:40.173Z,4.22
2019-05-19T16:47:01.949Z,7.20
2019-05-19T16:49:23.785Z,5.75
2019-05-19T16:51:45.463Z,6.58
2019-05-19T16:54:11.555Z,6.72
2019-05-19T16:56:32.953Z,8.63
2019-05-19T16:58:54.437Z,7.33
2019-05-19T17:01:16.055Z,8.50
2019-05-19T17:03:37.456Z,8.80
2019-05-19T17:05:59.073Z,8.65
2019-05-19T17:08:20.667Z,8.38
2019-05-19T17:10:42.071Z,9.03
2019-05-19T17:13:03.663Z,7.92
2019-05-19T17:15:25.095Z,7.28
2019-05-19T17:17:46.378Z,8.68
2019-05-19T17:20:07.880Z,8.73
2019-05-19T17:22:29.318Z,9.88
2019-05-19T17:24:50.733Z,9.03
2019-05-19T17:27:12.346Z,10.53
2019-05-19T17:29:34.158Z,9.30
2019-05-19T17:32:05.685Z,8.00
2019-05-19T17:34:18.857Z,6.37
2019-05-19T17:36:40.160Z,7.92
2019-05-19T17:39:01.767Z,6.55
2019-05-19T17:41:23.334Z,9.53
2019-05-19T17:43:44.853Z,6.80
2019-05-19T17:46:06.343Z,11.75
2019-05-19T17:48:28.012Z,8.50
2019-05-19T17:50:49.313Z,7.03
2019-05-19T17:53:10.678Z,10.98
2019-05-19T17:55:32.416Z,9.73
2019-05-19T17:57:53.857Z,7.40
2019-05-19T18:00:19.061Z,9.90
2019-05-19T18:02:40.606Z,8.68
2019-05-19T18:05:02.686Z,11.78
2019-05-19T18:07:24.073Z,10.25
2019-05-19T18:09:45.455Z,8.38
2019-05-19T18:12:07.049Z,8.60
2019-05-19T18:14:28.448Z,9.48
2019-05-19T18:16:50.081Z,17.98
2019-05-19T18:19:11.561Z,10.08
2019-05-19T18:21:32.947Z,9.13
2019-05-19T18:23:54.458Z,13.45
2019-05-19T18:26:18.619Z,13.98
2019-05-19T18:31:01.480Z,15.90
2019-05-19T18:33:22.819Z,10.58
2019-05-19T18:35:44.309Z,11.95
2019-05-19T18:38:06.017Z,14.68
2019-05-19T18:40:27.305Z,16.35
2019-05-19T18:42:48.898Z,16.23
2019-05-19T18:45:10.333Z,15.95
2019-05-19T18:47:32.130Z,14.60
2019-05-19T18:49:53.734Z,12.73
2019-05-19T18:52:15.163Z,16.87
2019-05-19T18:54:36.638Z,15.08
2019-05-19T18:56:58.269Z,25.43
2019-05-19T18:59:19.685Z,19.42
2019-05-19T19:01:41.296Z,12.65
2019-05-19T19:04:02.887Z,11.83
2019-05-19T19:06:26.714Z,18.07
2019-05-19T19:08:48.414Z,12.75
2019-05-19T19:11:09.933Z,12.63
2019-05-19T19:13:31.552Z,12.88
2019-05-19T19:15:53.039Z,10.63
2019-05-19T19:18:14.537Z,11.80
2019-05-19T19:20:36.128Z,12.58
2019-05-19T19:22:57.558Z,26.00
2019-05-19T19:25:18.949Z,14.65
2019-05-19T19:27:40.400Z,12.03
2019-05-19T19:30:04.132Z,10.43
2019-05-19T19:32:25.654Z,9.90
2019-05-19T19:34:47.114Z,15.72
2019-05-19T19:37:08.587Z,10.80
2019-05-19T19:39:29.973Z,9.75
2019-05-19T19:41:51.385Z,10.82
2019-05-19T19:44:12.893Z,12.63
2019-05-19T19:46:34.427Z,11.97
2019-05-19T19:48:55.690Z,13.08
2019-05-19T19:51:16.979Z,12.98
2019-05-19T19:53:38.661Z,12.05
2019-05-19T19:56:00.189Z,12.88
2019-05-19T19:58:21.748Z,15.45
2019-05-19T20:00:43.564Z,11.63
2019-05-19T20:03:05.551Z,11.83
2019-05-19T20:05:28.360Z,13.80
2019-05-19T20:07:50.275Z,13.03
2019-05-19T20:10:11.561Z,17.77
2019-05-19T20:12:32.944Z,17.37
2019-05-19T20:14:54.561Z,68.85
2019-05-19T20:17:16.049Z,33.25
2019-05-19T20:19:37.560Z,13.15
2019-05-19T20:21:59.176Z,31.20
2019-05-19T20:24:20.770Z,10.15
2019-05-19T20:27:01.942Z,10.28
2019-05-19T20:29:23.433Z,10.35
2019-05-19T20:31:44.693Z,16.00
2019-05-19T20:34:06.118Z,20.77
2019-05-19T20:36:27.522Z,24.30
2019-05-19T20:38:48.921Z,14.45
2019-05-19T20:41:10.367Z,16.15
2019-05-19T20:43:31.768Z,11.25
2019-05-19T20:45:53.149Z,11.38
2019-05-19T20:48:14.461Z,28.92
2019-05-19T20:50:35.938Z,19.62
2019-05-19T20:52:57.531Z,35.17
2019-05-19T20:55:18.954Z,14.73
2019-05-19T20:57:40.363Z,12.43
2019-05-19T21:00:03.140Z,11.30
2019-05-19T21:02:24.670Z,11.08
2019-05-19T21:04:46.155Z,12.07
2019-05-19T21:07:08.550Z,14.10
2019-05-19T21:09:35.943Z,16.85
2019-05-19T21:11:57.232Z,13.40
2019-05-19T21:14:19.202Z,14.20
2019-05-19T21:16:40.647Z,17.48
2019-05-19T21:19:02.266Z,16.25
2019-05-19T21:21:23.721Z,13.40
2019-05-19T21:23:45.014Z,15.72
2019-05-19T21:26:06.287Z,18.12
2019-05-19T21:28:27.684Z,13.58
2019-05-19T21:30:49.000Z,13.58
2019-05-19T21:33:10.374Z,17.32
2019-05-19T21:35:31.650Z,14.45
2019-05-19T21:37:53.064Z,15.85
2019-05-19T21:40:16.432Z,13.45
2019-05-19T21:42:37.819Z,19.23
2019-05-19T21:44:59.230Z,15.85
2019-05-19T21:47:20.660Z,18.00
2019-05-19T21:49:42.234Z,17.35
2019-05-19T21:52:03.676Z,17.37
2019-05-19T21:54:26.013Z,12.88
2019-05-19T21:56:47.377Z,15.13
2019-05-19T21:59:08.833Z,17.55
2019-05-19T22:01:30.338Z,15.45
2019-05-19T22:03:51.846Z,14.95
2019-05-19T22:06:13.859Z,13.25
2019-05-19T22:08:35.268Z,12.53
2019-05-19T22:10:56.874Z,12.53
2019-05-19T22:13:18.406Z,10.95
2019-05-19T22:15:40.007Z,12.85
2019-05-19T22:18:01.416Z,13.83
2019-05-19T22:20:22.956Z,12.65
2019-05-19T22:22:44.328Z,13.80
2019-05-19T22:25:06.208Z,12.00
2019-05-19T22:27:27.758Z,13.25
2019-05-19T22:29:49.341Z,12.03
2019-05-19T22:32:10.849Z,12.10
2019-05-19T22:34:32.670Z,8.95
2019-05-19T22:36:54.075Z,9.08
2019-05-19T22:39:15.548Z,12.55
2019-05-19T22:41:36.984Z,12.13
2019-05-19T22:43:58.274Z,9.53
2019-05-19T22:46:19.558Z,12.65
2019-05-19T22:48:41.086Z,11.65
2019-05-19T22:51:02.712Z,13.88
2019-05-19T22:53:24.709Z,13.55
2019-05-19T22:55:46.339Z,12.55
2019-05-19T22:58:08.006Z,14.18
2019-05-19T23:00:29.378Z,16.93
2019-05-19T23:02:50.937Z,12.30
2019-05-19T23:05:14.297Z,15.80
2019-05-19T23:07:35.592Z,15.43
2019-05-19T23:09:57.125Z,13.85
2019-05-19T23:12:18.396Z,11.38
2019-05-19T23:14:39.880Z,11.83
2019-05-19T23:17:01.415Z,14.65
2019-05-19T23:19:22.722Z,10.38
2019-05-19T23:21:44.660Z,14.23
2019-05-19T23:24:06.001Z,12.30
2019-05-19T23:26:27.560Z,14.18
2019-05-19T23:28:48.965Z,12.18
2019-05-19T23:31:15.754Z,11.55
2019-05-19T23:33:37.338Z,8.75
2019-05-19T23:35:58.735Z,8.98
2019-05-19T23:38:20.063Z,12.20
2019-05-19T23:40:41.541Z,11.18
2019-05-19T23:43:03.072Z,10.35
2019-05-19T23:45:24.603Z,11.75
2019-05-19T23:47:46.302Z,7.85
2019-05-19T23:50:07.690Z,9.68
2019-05-19T23:52:29.434Z,9.65
2019-05-19T23:54:51.030Z,11.35
2019-05-19T23:57:12.541Z,8.95
2019-05-19T23:59:48.880Z,11.55
